Time,TemperatureF,DewpointF,PressureIn,WindDirection,WindDirectionDegrees,WindSpeedMPH,WindSpeedGustMPH,Humidity,HourlyPrecipIn,Conditions,Clouds,dailyrainin,SoftwareType,DateUTC
2013-07-12 00:10:00,67.0,64.9,28.18,WNW,295,0.0,0.0,93,0.00,CLR,,0.00,WeatherDisplay:10.37,2013-07-12 04:10:00,
2013-07-12 00:20:00,66.7,64.7,28.18,SSW,206,0.0,0.0,93,0.00,CLR,,0.00,WeatherDisplay:10.37,2013-07-12 04:20:00,
2013-07-12 00:30:00,66.6,64.5,28.18,SW,235,0.0,0.0,93,0.00,CLR,,0.00,WeatherDisplay:10.37,2013-07-12 04:30:00,
2013-07-12 00:40:00,66.4,64.3,28.21,WSW,248,0.0,0.0,93,0.00,CLR,,0.00,WeatherDisplay:10.37,2013-07-12 04:40:00,
2013-07-12 00:50:00,66.4,64.3,28.21,WSW,248,0.0,0.0,93,0.00,CLR,,0.00,WeatherDisplay:10.37,2013-07-12 04:50:00,
2013-07-12 01:00:00,66.3,64.5,28.21,NNE,28,1.0,2.0,94,0.00,CLR,,0.00,WeatherDisplay:10.37,2013-07-12 05:00:00,
2013-07-12 01:10:00,66.2,64.4,28.21,NNE,26,0.0,2.0,94,0.00,CLR,,0.00,WeatherDisplay:10.37,2013-07-12 05:10:00,
2013-07-12 01:20:00,66.5,65.4,28.21,NNE,22,0.0,1.0,96,0.00,CLR,,0.00,WeatherDisplay:10.37,2013-07-12 05:20:00,
2013-07-12 01:30:00,66.4,65.2,28.21,WNW,303,0.0,2.0,96,0.00,CLR,,0.00,WeatherDisplay:10.37,2013-07-12 05:30:00,
2013-07-12 01:40:00,65.8,64.4,28.18,NW,310,0.0,0.0,95,0.00,CLR,,0.00,WeatherDisplay:10.37,2013-07-12 05:40:00,
2013-07-12 01:50:00,65.7,64.2,28.18,NNW,346,0.0,0.0,95,0.00,CLR,,0.00,WeatherDisplay:10.37,2013-07-12 05:50:00,
2013-07-12 02:00:00,65.7,64.5,28.18,NNW,338,0.0,0.0,96,0.00,CLR,,0.00,WeatherDisplay:10.37,2013-07-12 06:00:00,
2013-07-12 02:10:00,65.8,64.7,28.18,NNW,338,0.0,0.0,96,0.00,CLR,,0.00,WeatherDisplay:10.37,2013-07-12 06:10:00,
2013-07-12 02:20:00,65.7,64.5,28.18,NNW,338,0.0,0.0,96,0.00,CLR,,0.00,WeatherDisplay:10.37,2013-07-12 06:20:00,
2013-07-12 02:30:00,65.7,64.8,28.18,NNW,338,0.0,0.0,97,0.00,CLR,,0.00,WeatherDisplay:10.37,2013-07-12 06:30:00,
2013-07-12 02:40:00,65.7,64.8,28.18,North,350,0.0,0.0,97,0.00,CLR,,0.00,WeatherDisplay:10.37,2013-07-12 06:40:00,
2013-07-12 02:50:00,65.8,65.8,28.18,NE,35,0.0,0.0,100,0.00,CLR,,0.00,WeatherDisplay:10.37,2013-07-12 06:50:00,
2013-07-12 03:00:00,65.8,65.8,28.18,NE,38,0.0,0.0,100,0.00,CLR,,0.00,WeatherDisplay:10.37,2013-07-12 07:00:00,
2013-07-12 03:10:00,65.8,65.8,28.18,NE,39,0.0,0.0,100,0.00,CLR,,0.00,WeatherDisplay:10.37,2013-07-12 07:10:00,
2013-07-12 03:20:00,65.8,65.8,28.18,NNE,14,0.0,0.0,100,0.00,CLR,,0.00,WeatherDisplay:10.37,2013-07-12 07:20:00,
2013-07-12 03:30:00,65.7,65.7,28.18,NNE,27,0.0,0.0,100,0.00,CLR,,0.00,WeatherDisplay:10.37,2013-07-12 07:30:00,
2013-07-12 03:40:00,65.7,65.7,28.18,NNW,348,0.0,2.0,100,0.00,CLR,,0.00,WeatherDisplay:10.37,2013-07-12 07:40:00,
2013-07-12 03:50:00,65.7,65.7,28.18,NNE,15,0.0,0.0,100,0.00,CLR,,0.00,WeatherDisplay:10.37,2013-07-12 07:50:00,
2013-07-12 04:00:00,65.5,65.5,28.18,North,7,0.0,0.0,100,0.00,CLR,,0.00,WeatherDisplay:10.37,2013-07-12 08:00:00,
2013-07-12 04:10:00,65.5,65.5,28.18,NNW,347,0.0,0.0,100,0.00,CLR,,0.00,WeatherDisplay:10.37,2013-07-12 08:10:00,
2013-07-12 04:20:00,65.7,65.7,28.18,North,4,0.0,0.0,100,0.00,CLR,,0.00,WeatherDisplay:10.37,2013-07-12 08:20:00,
2013-07-12 04:30:00,65.7,65.7,28.18,North,7,0.0,0.0,100,0.00,CLR,,0.00,WeatherDisplay:10.37,2013-07-12 08:30:00,
2013-07-12 04:40:00,65.7,65.7,28.18,North,351,0.0,0.0,100,0.00,CLR,,0.00,WeatherDisplay:10.37,2013-07-12 08:40:00,
2013-07-12 04:50:00,65.7,65.7,28.18,NE,34,0.0,0.0,100,0.00,CLR,,0.00,WeatherDisplay:10.37,2013-07-12 08:50:00,
2013-07-12 05:00:00,65.7,65.7,28.18,NNW,348,0.0,0.0,100,0.00,CLR,,0.00,WeatherDisplay:10.37,2013-07-12 09:00:00,
2013-07-12 05:10:00,65.7,65.7,28.18,ENE,68,0.0,0.0,100,0.00,CLR,,0.00,WeatherDisplay:10.37,2013-07-12 09:10:00,
2013-07-12 05:20:00,65.5,65.5,28.18,NNE,32,0.0,0.0,100,0.00,CLR,,0.00,WeatherDisplay:10.37,2013-07-12 09:20:00,
2013-07-12 05:30:00,65.5,65.5,28.18,NNE,22,0.0,0.0,100,0.00,CLR,,0.00,WeatherDisplay:10.37,2013-07-12 09:30:00,
2013-07-12 05:40:00,65.1,65.1,28.18,NNE,22,0.0,0.0,100,0.00,CLR,,0.00,WeatherDisplay:10.37,2013-07-12 09:40:00,
2013-07-12 05:50:00,65.1,65.1,28.18,NNE,22,0.0,0.0,100,0.00,CLR,,0.00,WeatherDisplay:10.37,2013-07-12 09:50:00,
2013-07-12 06:00:00,65.1,65.1,28.18,NNE,22,0.0,0.0,100,0.00,CLR,,0.00,WeatherDisplay:10.37,2013-07-12 10:00:00,
2013-07-12 06:10:00,64.8,63.9,28.18,NNE,14,0.0,0.0,97,0.00,CLR,,0.00,WeatherDisplay:10.37,2013-07-12 10:10:00,
2013-07-12 06:20:00,64.6,63.7,28.18,North,0,0.0,0.0,97,0.00,CLR,,0.00,WeatherDisplay:10.37,2013-07-12 10:20:00,
2013-07-12 06:30:00,64.6,64.6,28.18,North,0,0.0,0.0,100,0.00,CLR,,0.00,WeatherDisplay:10.37,2013-07-12 10:30:00,
2013-07-12 06:40:00,64.6,64.6,28.18,NNW,327,0.0,0.0,100,0.00,CLR,,0.00,WeatherDisplay:10.37,2013-07-12 10:40:00,
2013-07-12 06:50:00,64.6,64.6,28.18,NW,315,0.0,0.0,100,0.00,CLR,,0.00,WeatherDisplay:10.37,2013-07-12 10:50:00,
2013-07-12 07:00:00,64.6,64.6,28.18,NNW,338,0.0,0.0,100,0.00,CLR,,0.00,WeatherDisplay:10.37,2013-07-12 11:00:00,
2013-07-12 07:10:00,64.8,64.8,28.18,NNW,338,0.0,0.0,100,0.00,CLR,,0.00,WeatherDisplay:10.37,2013-07-12 11:10:00,
2013-07-12 07:20:00,64.9,64.9,28.18,NW,324,0.0,0.0,100,0.00,CLR,,0.00,WeatherDisplay:10.37,2013-07-12 11:20:00,
2013-07-12 07:30:00,65.5,65.5,28.18,NW,326,0.0,0.0,100,0.00,CLR,,0.00,WeatherDisplay:10.37,2013-07-12 11:30:00,
2013-07-12 07:40:00,65.9,65.9,28.18,North,3,0.0,0.0,100,0.00,CLR,,0.00,WeatherDisplay:10.37,2013-07-12 11:40:00,
2013-07-12 07:50:00,66.4,66.4,28.21,North,6,0.0,0.0,100,0.00,CLR,,0.00,WeatherDisplay:10.37,2013-07-12 11:50:00,
2013-07-12 08:00:00,66.9,66.9,28.21,NNW,330,1.0,3.0,100,0.00,CLR,,0.00,WeatherDisplay:10.37,2013-07-12 12:00:00,
2013-07-12 08:10:00,67.7,67.7,28.21,NNW,328,1.0,2.0,100,0.00,CLR,,0.00,WeatherDisplay:10.37,2013-07-12 12:10:00,
2013-07-12 08:20:00,68.2,68.2,28.21,NNW,336,1.0,2.0,100,0.00,CLR,,0.00,WeatherDisplay:10.37,2013-07-12 12:20:00,
2013-07-12 08:30:00,68.4,67.2,28.21,NNE,26,2.0,3.0,96,0.00,CLR,,0.00,WeatherDisplay:10.37,2013-07-12 12:30:00,
2013-07-12 08:40:00,68.9,65.8,28.21,NNE,28,2.0,5.0,90,0.00,CLR,,0.00,WeatherDisplay:10.37,2013-07-12 12:40:00,
2013-07-12 08:50:00,69.5,66.1,28.21,NNE,12,0.0,5.0,89,0.00,CLR,,0.00,WeatherDisplay:10.37,2013-07-12 12:50:00,
2013-07-12 09:00:00,70.2,66.1,28.21,North,8,1.0,2.0,87,0.00,CLR,,0.00,WeatherDisplay:10.37,2013-07-12 13:00:00,
2013-07-12 09:10:00,70.9,66.5,28.21,North,357,0.0,2.0,86,0.00,CLR,,0.00,WeatherDisplay:10.37,2013-07-12 13:10:00,
2013-07-12 09:20:00,70.9,64.0,28.21,North,1,3.0,5.0,79,0.00,CLR,,0.00,WeatherDisplay:10.37,2013-07-12 13:20:00,
2013-07-12 09:30:00,71.4,64.6,28.21,North,351,2.0,5.0,79,0.00,CLR,,0.00,WeatherDisplay:10.37,2013-07-12 13:30:00,
2013-07-12 09:40:00,71.6,62.1,28.24,NNW,332,1.0,3.0,72,0.00,CLR,,0.00,WeatherDisplay:10.37,2013-07-12 13:40:00,
2013-07-12 09:50:00,72.7,63.6,28.21,NW,310,1.0,2.0,73,0.00,CLR,,0.00,WeatherDisplay:10.37,2013-07-12 13:50:00,
2013-07-12 10:00:00,73.7,61.6,28.21,NE,40,2.0,3.0,66,0.00,CLR,,0.00,WeatherDisplay:10.37,2013-07-12 14:00:00,
2013-07-12 10:10:00,73.1,57.9,28.21,North,351,2.0,3.0,59,0.00,CLR,,0.00,WeatherDisplay:10.37,2013-07-12 14:10:00,
2013-07-12 10:20:00,73.3,59.9,28.21,NNE,15,1.0,3.0,63,0.00,CLR,,0.00,WeatherDisplay:10.37,2013-07-12 14:20:00,
2013-07-12 10:30:00,73.9,58.2,28.21,NNE,32,2.0,4.0,58,0.00,CLR,,0.00,WeatherDisplay:10.37,2013-07-12 14:30:00,
2013-07-12 10:40:00,74.7,58.9,28.21,NNE,22,1.0,4.0,58,0.00,CLR,,0.00,WeatherDisplay:10.37,2013-07-12 14:40:00,
2013-07-12 10:50:00,75.4,57.6,28.24,NW,318,1.0,2.0,54,0.00,CLR,,0.00,WeatherDisplay:10.37,2013-07-12 14:50:00,
2013-07-12 11:00:00,73.5,54.8,28.24,WNW,297,1.0,2.0,52,0.00,CLR,,0.00,WeatherDisplay:10.37,2013-07-12 15:00:00,
2013-07-12 11:10:00,75.0,56.2,28.21,WNW,293,1.0,2.0,52,0.00,CLR,,0.00,WeatherDisplay:10.37,2013-07-12 15:10:00,
2013-07-12 11:20:00,77.2,55.4,28.24,North,350,1.0,3.0,47,0.00,CLR,,0.00,WeatherDisplay:10.37,2013-07-12 15:20:00,
2013-07-12 11:30:00,77.7,54.1,28.24,WNW,303,2.0,5.0,44,0.00,CLR,,0.00,WeatherDisplay:10.37,2013-07-12 15:30:00,
2013-07-12 11:40:00,77.0,51.5,28.21,WNW,293,1.0,3.0,41,0.00,CLR,,0.00,WeatherDisplay:10.37,2013-07-12 15:40:00,
2013-07-12 11:50:00,77.4,52.5,28.21,NW,324,2.0,3.0,42,0.00,CLR,,0.00,WeatherDisplay:10.37,2013-07-12 15:50:00,
2013-07-12 12:00:00,77.6,53.4,28.21,NW,322,2.0,4.0,43,0.00,CLR,,0.00,WeatherDisplay:10.37,2013-07-12 16:00:00,
2013-07-12 12:10:00,76.5,53.5,28.21,WNW,289,1.0,4.0,45,0.00,CLR,,0.00,WeatherDisplay:10.37,2013-07-12 16:10:00,
2013-07-12 12:20:00,77.0,51.5,28.21,WNW,286,1.0,2.0,41,0.00,CLR,,0.00,WeatherDisplay:10.37,2013-07-12 16:20:00,
2013-07-12 12:30:00,77.2,52.3,28.21,WNW,293,2.0,3.0,42,0.00,CLR,,0.00,WeatherDisplay:10.37,2013-07-12 16:30:00,
2013-07-12 12:40:00,75.8,51.1,28.21,West,280,1.0,3.0,42,0.00,CLR,,0.00,WeatherDisplay:10.37,2013-07-12 16:40:00,
2013-07-12 12:51:00,77.0,54.0,28.21,NW,307,2.0,3.0,45,0.00,CLR,,0.00,WeatherDisplay:10.37,2013-07-12 16:51:00,
2013-07-12 13:00:00,78.0,53.7,28.21,West,279,2.0,4.0,43,0.00,CLR,,0.00,WeatherDisplay:10.37,2013-07-12 17:00:00,
2013-07-12 13:20:00,78.6,52.3,28.21,WNW,295,2.0,5.0,40,0.00,CLR,,0.00,WeatherDisplay:10.37,2013-07-12 17:20:00,
2013-07-12 13:50:00,78.8,52.4,28.21,WNW,292,1.0,5.0,40,0.00,CLR,,0.00,WeatherDisplay:10.37,2013-07-12 17:50:00,
2013-07-12 14:00:00,79.2,52.1,28.21,WNW,292,2.0,5.0,39,0.00,CLR,,0.00,WeatherDisplay:10.37,2013-07-12 18:00:00,
2013-07-12 14:10:00,79.0,51.9,28.24,WNW,288,2.0,3.0,39,0.00,CLR,,0.00,WeatherDisplay:10.37,2013-07-12 18:10:00,
2013-07-12 14:20:00,79.3,48.5,28.21,WNW,292,2.0,5.0,34,0.00,CLR,,0.00,WeatherDisplay:10.37,2013-07-12 18:20:00,
2013-07-12 14:30:00,79.0,49.0,28.21,WNW,295,1.0,5.0,35,0.00,CLR,,0.00,WeatherDisplay:10.37,2013-07-12 18:30:00,
2013-07-12 14:40:00,79.6,51.7,28.24,WNW,292,2.0,5.0,38,0.00,CLR,,0.00,WeatherDisplay:10.37,2013-07-12 18:40:00,
2013-07-12 15:00:00,79.6,48.0,28.24,West,268,2.0,6.0,33,0.00,CLR,,0.00,WeatherDisplay:10.37,2013-07-12 19:00:00,
2013-07-12 15:10:00,79.8,48.1,28.24,WNW,303,3.0,5.0,33,0.00,CLR,,0.00,WeatherDisplay:10.37,2013-07-12 19:10:00,
2013-07-12 15:20:00,80.2,48.5,28.24,WNW,292,2.0,4.0,33,0.00,CLR,,0.00,WeatherDisplay:10.37,2013-07-12 19:20:00,
2013-07-12 15:30:00,80.7,47.3,28.24,NW,305,2.0,5.0,31,0.00,CLR,,0.00,WeatherDisplay:10.37,2013-07-12 19:30:00,
2013-07-12 15:40:00,80.7,47.2,28.24,WNW,300,2.0,5.0,31,0.00,CLR,,0.00,WeatherDisplay:10.37,2013-07-12 19:40:00,
2013-07-12 15:50:00,81.3,48.6,28.24,West,268,2.0,5.0,32,0.00,CLR,,0.00,WeatherDisplay:10.37,2013-07-12 19:50:00,
2013-07-12 16:00:00,81.1,46.8,28.24,WNW,300,2.0,5.0,30,0.00,CLR,,0.00,WeatherDisplay:10.37,2013-07-12 20:00:00,
2013-07-12 16:10:00,81.1,48.5,28.24,NNW,340,2.0,4.0,32,0.00,CLR,,0.00,WeatherDisplay:10.37,2013-07-12 20:10:00,
2013-07-12 16:20:00,81.1,48.4,28.24,NW,321,2.0,5.0,32,0.00,CLR,,0.00,WeatherDisplay:10.37,2013-07-12 20:20:00,
2013-07-12 16:40:00,81.1,45.9,28.24,WNW,284,1.0,3.0,29,0.00,CLR,,0.00,WeatherDisplay:10.37,2013-07-12 20:40:00,
2013-07-12 16:50:00,81.5,47.1,28.24,West,278,2.0,4.0,30,0.00,CLR,,0.00,WeatherDisplay:10.37,2013-07-12 20:50:00,
2013-07-12 17:00:00,81.5,47.1,28.24,West,274,2.0,3.0,30,0.00,CLR,,0.00,WeatherDisplay:10.37,2013-07-12 21:00:00,
2013-07-12 17:10:00,81.1,46.8,28.24,WNW,301,2.0,4.0,30,0.00,CLR,,0.00,WeatherDisplay:10.37,2013-07-12 21:10:00,
2013-07-12 17:20:00,81.6,47.2,28.24,NW,306,2.0,4.0,30,0.00,CLR,,0.00,WeatherDisplay:10.37,2013-07-12 21:20:00,
2013-07-12 17:30:00,82.6,47.1,28.24,WNW,287,2.0,5.0,29,0.00,CLR,,0.00,WeatherDisplay:10.37,2013-07-12 21:30:00,
2013-07-12 17:40:00,82.9,48.3,28.24,NW,309,2.0,5.0,30,0.00,CLR,,0.00,WeatherDisplay:10.37,2013-07-12 21:40:00,
2013-07-12 17:50:00,83.5,48.8,28.24,NW,306,1.0,3.0,30,0.00,CLR,,0.00,WeatherDisplay:10.37,2013-07-12 21:50:00,
2013-07-12 18:00:00,83.3,47.7,28.24,NW,322,1.0,3.0,29,0.00,CLR,,0.00,WeatherDisplay:10.37,2013-07-12 22:00:00,
2013-07-12 18:20:00,81.1,47.6,28.24,NNW,339,1.0,3.0,31,0.00,CLR,,0.00,WeatherDisplay:10.37,2013-07-12 22:20:00,
2013-07-12 18:30:00,80.4,47.9,28.24,NNE,27,1.0,3.0,32,0.00,CLR,,0.00,WeatherDisplay:10.37,2013-07-12 22:30:00,
2013-07-12 18:50:00,79.5,47.1,28.24,North,1,1.0,3.0,32,0.00,CLR,,0.00,WeatherDisplay:10.37,2013-07-12 22:50:00,
2013-07-12 19:00:00,79.5,47.1,28.24,NNW,344,1.0,2.0,32,0.00,CLR,,0.00,WeatherDisplay:10.37,2013-07-12 23:00:00,
2013-07-12 19:10:00,79.2,48.4,28.24,NNW,338,1.0,3.0,34,0.00,CLR,,0.00,WeatherDisplay:10.37,2013-07-12 23:10:00,
2013-07-12 19:20:00,78.8,50.3,28.24,NW,314,1.0,3.0,37,0.00,CLR,,0.00,WeatherDisplay:10.37,2013-07-12 23:20:00,
2013-07-12 19:30:00,78.1,49.0,28.24,NW,317,1.0,3.0,36,0.00,CLR,,0.00,WeatherDisplay:10.37,2013-07-12 23:30:00,
2013-07-12 19:40:00,76.9,51.4,28.24,WNW,303,1.0,2.0,41,0.00,CLR,,0.00,WeatherDisplay:10.37,2013-07-12 23:40:00,
2013-07-12 19:50:00,76.0,50.6,28.24,NW,314,0.0,2.0,41,0.00,CLR,,0.00,WeatherDisplay:10.37,2013-07-12 23:50:00,
2013-07-12 20:00:00,74.8,50.8,28.24,NNW,335,1.0,4.0,43,0.00,CLR,,0.00,WeatherDisplay:10.37,2013-07-13 00:00:00,
2013-07-12 20:10:00,74.5,51.7,28.24,North,1,2.0,3.0,45,0.00,CLR,,0.00,WeatherDisplay:10.37,2013-07-13 00:10:00,
2013-07-12 20:30:00,72.3,49.2,28.24,NE,34,2.0,6.0,44,0.00,CLR,,0.00,WeatherDisplay:10.37,2013-07-13 00:30:00,
2013-07-12 20:40:00,71.2,48.8,28.24,NE,37,2.0,6.0,45,0.00,CLR,,0.00,WeatherDisplay:10.37,2013-07-13 00:40:00,
2013-07-12 21:00:00,69.7,50.2,28.24,NNE,25,1.0,3.0,50,0.00,CLR,,0.00,WeatherDisplay:10.37,2013-07-13 01:00:00,
2013-07-12 21:10:00,69.3,50.4,28.24,NNE,13,1.0,2.0,51,0.00,CLR,,0.00,WeatherDisplay:10.37,2013-07-13 01:10:00,
2013-07-12 21:20:00,68.9,51.6,28.24,NNE,30,1.0,3.0,54,0.00,CLR,,0.00,WeatherDisplay:10.37,2013-07-13 01:20:00,
2013-07-12 21:30:00,68.5,51.7,28.24,NNE,13,1.0,3.0,55,0.00,CLR,,0.00,WeatherDisplay:10.37,2013-07-13 01:30:00,
2013-07-12 21:40:00,68.2,51.9,28.24,North,357,1.0,2.0,56,0.00,CLR,,0.00,WeatherDisplay:10.37,2013-07-13 01:40:00,
2013-07-12 22:00:00,67.8,53.9,28.24,NNE,30,1.0,2.0,61,0.00,CLR,,0.00,WeatherDisplay:10.37,2013-07-13 02:00:00,
2013-07-12 22:20:00,67.6,54.6,28.24,NNW,337,0.0,2.0,63,0.00,CLR,,0.00,WeatherDisplay:10.37,2013-07-13 02:20:00,
2013-07-12 22:30:00,67.6,55.0,28.24,NNE,19,1.0,2.0,64,0.00,CLR,,0.00,WeatherDisplay:10.37,2013-07-13 02:30:00,
2013-07-12 22:40:00,67.3,54.7,28.24,NE,37,2.0,3.0,64,0.00,CLR,,0.00,WeatherDisplay:10.37,2013-07-13 02:40:00,
2013-07-12 22:50:00,66.9,54.3,28.24,North,7,0.0,2.0,64,0.00,CLR,,0.00,WeatherDisplay:10.37,2013-07-13 02:50:00,
2013-07-12 23:00:00,66.7,55.4,28.24,NNE,28,2.0,3.0,67,0.00,CLR,,0.00,WeatherDisplay:10.37,2013-07-13 03:00:00,
2013-07-12 23:20:00,66.7,56.2,28.24,NNE,28,2.0,5.0,69,0.00,CLR,,0.00,WeatherDisplay:10.37,2013-07-13 03:20:00,
2013-07-12 23:30:00,66.7,56.2,28.24,NE,41,1.0,4.0,69,0.00,CLR,,0.00,WeatherDisplay:10.37,2013-07-13 03:30:00,
2013-07-12 23:50:00,66.4,56.3,28.24,North,355,1.0,3.0,70,0.00,CLR,,0.00,WeatherDisplay:10.37,2013-07-13 03:50:00,